Time;durP1;ratioP1;P1;durP2;ratioP2;P2;SDS_P1;SDS_P2;PMS_P1;PMS_P2;Temp;Humidity;BMP_temperature;BMP_pressure;BME280_temperature;BME280_humidity;BME280_pressure;Samples;Min_cycle;Max_cycle;Signal;HPM_P1;HPM_P2
2022/08/20 00:00:30;;;;;;;25.50;11.45;;;;;;;18.76;100.00;101381.94;5073264;28;20534;-75
2022/08/20 00:03:01;;;;;;;23.23;11.57;;;;;;;18.78;100.00;101382.66;5073533;28;20103;-75
2022/08/20 00:05:36;;;;;;;24.70;11.90;;;;;;;18.78;100.00;101379.91;5073486;28;20028;-75
2022/08/20 00:08:02;;;;;;;24.73;11.40;;;;;;;18.80;100.00;101375.19;5073812;28;20391;-75
2022/08/20 00:10:30;;;;;;;23.52;10.95;;;;;;;18.80;100.00;101368.88;5073451;28;20024;-75
2022/08/20 00:12:56;;;;;;;25.73;12.18;;;;;;;18.77;100.00;101363.75;5073620;28;20029;-75
2022/08/20 00:15:25;;;;;;;23.27;11.60;;;;;;;18.76;100.00;101368.34;5073471;28;20025;-75
2022/08/20 00:17:51;;;;;;;22.35;11.38;;;;;;;18.76;100.00;101367.50;5073819;28;20369;-75
2022/08/20 00:20:19;;;;;;;22.55;10.60;;;;;;;18.79;100.00;101365.31;5073568;28;20416;-75
2022/08/20 00:22:44;;;;;;;23.77;11.25;;;;;;;18.77;100.00;101361.00;5073476;28;20378;-75
2022/08/20 00:25:10;;;;;;;21.92;10.32;;;;;;;18.78;100.00;101368.19;5073195;28;20054;-75
2022/08/20 00:27:35;;;;;;;24.85;12.07;;;;;;;18.78;100.00;101360.84;5073661;28;20050;-75
2022/08/20 00:30:02;;;;;;;23.83;11.10;;;;;;;18.76;100.00;101364.78;5071627;28;20035;-75
2022/08/20 00:32:27;;;;;;;23.42;12.10;;;;;;;18.79;100.00;101369.91;5073011;28;20106;-75
2022/08/20 00:34:52;;;;;;;23.45;12.07;;;;;;;18.79;100.00;101361.75;5073231;28;20056;-75
2022/08/20 00:37:18;;;;;;;23.13;11.40;;;;;;;18.79;100.00;101372.63;5073444;28;20543;-75
2022/08/20 00:39:43;;;;;;;23.10;11.55;;;;;;;18.80;100.00;101369.75;5074390;28;20032;-75
2022/08/20 00:42:09;;;;;;;23.05;11.18;;;;;;;18.79;100.00;101359.84;5077204;28;20028;-75
2022/08/20 00:44:35;;;;;;;24.23;11.95;;;;;;;18.78;100.00;101363.59;5077504;28;20028;-75
2022/08/20 00:47:00;;;;;;;23.75;10.77;;;;;;;18.78;100.00;101366.31;5077258;28;20036;-75
2022/08/20 00:49:30;;;;;;;25.20;11.82;;;;;;;18.78;100.00;101363.59;5077149;28;20032;-75
2022/08/20 00:52:05;;;;;;;;;;;;;;;18.84;100.00;101368.44;5077259;28;20058;-75
2022/08/20 00:54:42;;;;;;;23.88;10.93;;;;;;;18.80;100.00;101369.75;5077235;28;19912;-75
2022/08/20 00:57:11;;;;;;;23.58;10.45;;;;;;;18.76;100.00;101371.06;5076049;28;20025;-75
2022/08/20 00:59:40;;;;;;;22.17;9.93;;;;;;;18.75;100.00;101377.50;5076289;28;20115;-75
2022/08/20 01:02:10;;;;;;;23.00;10.70;;;;;;;18.78;100.00;101373.63;5076278;28;20024;-75
2022/08/20 01:04:36;;;;;;;24.77;10.52;;;;;;;18.75;100.00;101366.63;5076721;28;20039;-75
2022/08/20 01:07:04;;;;;;;21.83;10.95;;;;;;;18.75;100.00;101372.06;5076832;28;20024;-75
2022/08/20 01:09:30;;;;;;;23.73;12.10;;;;;;;18.75;100.00;101368.50;5075202;28;20039;-75
2022/08/20 01:11:56;;;;;;;22.88;11.93;;;;;;;18.74;100.00;101367.66;5076537;28;20024;-75
2022/08/20 01:14:30;;;;;;;23.67;12.48;;;;;;;18.73;100.00;101376.81;5076613;28;20017;-75
2022/08/20 01:17:01;;;;;;;23.67;12.23;;;;;;;18.72;100.00;101366.94;5076176;28;20031;-75
2022/08/20 01:19:31;;;;;;;25.17;12.27;;;;;;;18.71;100.00;101367.94;5076565;28;20028;-75
2022/08/20 01:21:59;;;;;;;24.63;12.02;;;;;;;18.71;100.00;101367.06;5077328;28;20059;-75
2022/08/20 01:24:38;;;;;;;23.95;13.10;;;;;;;18.70;100.00;101363.50;5076792;28;20036;-75
2022/08/20 01:27:04;;;;;;;25.00;12.63;;;;;;;18.70;100.00;101368.97;5075261;28;20024;-75
2022/08/20 01:29:35;;;;;;;24.70;12.68;;;;;;;18.68;100.00;101370.97;5076142;28;20368;-75
2022/08/20 01:32:01;;;;;;;24.52;12.98;;;;;;;18.67;100.00;101372.84;5076178;28;20063;-75
2022/08/20 01:34:28;;;;;;;23.92;12.52;;;;;;;18.68;100.00;101371.84;5075053;28;20016;-75
2022/08/20 01:36:56;;;;;;;24.45;12.77;;;;;;;18.66;100.00;101379.28;5076523;28;20024;-75
2022/08/20 01:39:28;;;;;;;24.50;12.23;;;;;;;18.65;100.00;101366.69;5076504;28;20049;-75
2022/08/20 01:42:21;;;;;;;24.20;12.68;;;;;;;18.65;100.00;101371.28;5075756;28;20056;-75
2022/08/20 01:44:46;;;;;;;24.65;12.32;;;;;;;18.62;100.00;101372.41;5074574;28;20052;-75
2022/08/20 01:47:17;;;;;;;25.50;13.18;;;;;;;18.62;100.00;101368.84;5076456;28;20052;-75
2022/08/20 01:49:48;;;;;;;26.60;13.63;;;;;;;18.60;100.00;101365.44;5076089;28;20115;-75
2022/08/20 01:52:23;;;;;;;30.50;14.75;;;;;;;18.57;100.00;101376.63;5073266;28;20496;-75
2022/08/20 01:54:48;;;;;;;26.23;12.88;;;;;;;18.54;100.00;101372.34;5076321;28;20055;-75
2022/08/20 01:57:17;;;;;;;25.17;13.40;;;;;;;18.51;100.00;101370.78;5075813;28;20025;-75
2022/08/20 01:59:43;;;;;;;25.83;14.18;;;;;;;18.51;100.00;101375.38;5075754;28;20472;-75
2022/08/20 02:02:09;;;;;;;24.20;12.88;;;;;;;18.50;100.00;101377.22;5076000;28;20034;-75
2022/08/20 02:04:35;;;;;;;25.67;13.30;;;;;;;18.51;100.00;101380.81;5075839;28;20557;-75
2022/08/20 02:07:04;;;;;;;26.55;14.52;;;;;;;18.48;100.00;101373.81;5076055;28;20024;-75
2022/08/20 02:09:34;;;;;;;28.13;14.70;;;;;;;18.48;100.00;101370.25;5074556;28;20021;-75
2022/08/20 02:12:02;;;;;;;26.48;14.27;;;;;;;18.47;100.00;101369.38;5076022;28;20059;-75
2022/08/20 02:14:28;;;;;;;27.25;15.65;;;;;;;18.45;100.00;101381.44;5075323;28;20357;-75
2022/08/20 02:16:53;;;;;;;26.40;15.32;;;;;;;18.45;100.00;101373.28;5074281;28;20059;-75
2022/08/20 02:19:23;;;;;;;26.73;14.63;;;;;;;18.45;100.00;101378.72;5075466;28;20052;-75
2022/08/20 02:21:52;;;;;;;28.10;14.75;;;;;;;18.45;100.00;101376.84;5075453;28;20052;-75
2022/08/20 02:24:18;;;;;;;25.42;14.40;;;;;;;18.44;100.00;101382.44;5074282;28;20431;-75
2022/08/20 02:26:44;;;;;;;25.17;14.57;;;;;;;18.42;100.00;101377.13;5075110;28;20028;-75
2022/08/20 02:29:11;;;;;;;29.05;15.38;;;;;;;18.40;100.00;101381.84;5075246;28;20074;-75
2022/08/20 02:31:38;;;;;;;27.70;15.00;;;;;;;18.39;100.00;101380.16;5075194;28;20055;-75
2022/08/20 02:34:05;;;;;;;34.53;15.07;;;;;;;18.35;100.00;101376.03;5075406;28;20048;-75
2022/08/20 02:36:31;;;;;;;29.38;13.25;;;;;;;18.30;100.00;101368.31;5075502;28;20389;-75
2022/08/20 02:38:57;;;;;;;27.35;14.40;;;;;;;18.28;100.00;101364.03;5075356;28;20036;-75
2022/08/20 02:41:22;;;;;;;25.90;13.80;;;;;;;18.26;100.00;101372.34;5075136;28;20020;-75
2022/08/20 02:43:50;;;;;;;27.05;15.18;;;;;;;18.23;100.00;101374.50;5075000;28;20535;-75
2022/08/20 02:46:17;;;;;;;26.73;14.25;;;;;;;18.19;100.00;101382.09;5074297;28;20027;-75
2022/08/20 02:48:43;;;;;;;26.35;15.25;;;;;;;18.19;100.00;101386.69;5074967;28;20051;-75
2022/08/20 02:51:09;;;;;;;29.10;14.05;;;;;;;18.15;100.00;101389.69;5075078;28;20024;-75
2022/08/20 02:53:37;;;;;;;29.55;16.38;;;;;;;18.13;100.00;101388.16;5073633;28;20446;-75
2022/08/20 02:56:04;;;;;;;28.27;16.07;;;;;;;18.14;100.00;101384.41;5074830;28;20108;-75
2022/08/20 02:58:30;;;;;;;31.85;16.42;;;;;;;18.12;100.00;101384.56;5074924;28;20303;-75
2022/08/20 03:00:56;;;;;;;32.55;18.60;;;;;;;18.12;100.00;101383.72;5073461;28;20067;-75
2022/08/20 03:03:23;;;;;;;31.00;17.63;;;;;;;18.09;100.00;101382.13;5074267;28;20115;-75
2022/08/20 03:05:52;;;;;;;32.60;18.92;;;;;;;18.09;100.00;101382.13;5073271;28;20095;-75
2022/08/20 03:08:17;;;;;;;30.42;18.75;;;;;;;18.10;100.00;101389.31;5074675;28;20025;-75
2022/08/20 03:10:45;;;;;;;30.85;18.90;;;;;;;18.09;100.00;101387.56;5072978;28;20055;-75
2022/08/20 03:13:11;;;;;;;28.85;19.33;;;;;;;18.09;100.00;101379.41;5074536;28;20070;-75
2022/08/20 03:15:39;;;;;;;31.00;19.13;;;;;;;18.08;100.00;101385.88;5074634;28;20111;-75
2022/08/20 03:18:04;;;;;;;31.38;19.17;;;;;;;18.07;100.00;101381.44;5073138;28;20078;-75
2022/08/20 03:20:30;;;;;;;30.10;19.50;;;;;;;18.06;100.00;101384.31;5074654;28;20021;-75
2022/08/20 03:22:56;;;;;;;32.45;19.40;;;;;;;18.06;100.00;101387.03;5073233;28;20037;-75
2022/08/20 03:25:22;;;;;;;31.85;19.35;;;;;;;18.04;100.00;101384.47;5074335;28;20085;-75
2022/08/20 03:27:48;;;;;;;31.45;20.58;;;;;;;18.03;100.00;101388.19;5074593;28;20107;-75
2022/08/20 03:30:15;;;;;;;32.05;18.35;;;;;;;18.02;100.00;101401.94;5074516;28;20383;-75
2022/08/20 03:32:41;;;;;;;31.17;18.77;;;;;;;18.01;100.00;101395.66;5073258;28;20102;-75
2022/08/20 03:35:09;;;;;;;30.27;17.85;;;;;;;17.99;100.00;101398.50;5074664;28;20430;-75
2022/08/20 03:37:37;;;;;;;30.63;18.50;;;;;;;18.01;100.00;101405.66;5074633;28;20116;-75
2022/08/20 03:40:06;;;;;;;32.38;18.17;;;;;;;17.97;100.00;101399.66;5072875;28;20027;-75
2022/08/20 03:42:31;;;;;;;33.60;17.33;;;;;;;17.99;100.00;101408.50;5074150;28;20024;-75
2022/08/20 03:44:56;;;;;;;31.30;17.42;;;;;;;17.98;100.00;101409.53;5074056;28;20035;-75
2022/08/20 03:47:22;;;;;;;31.30;17.60;;;;;;;17.94;100.00;101406.25;5074665;28;20024;-75
2022/08/20 03:49:48;;;;;;;35.30;16.35;;;;;;;17.92;100.00;101407.38;5072748;28;20025;-75
2022/08/20 03:52:14;;;;;;;30.38;15.88;;;;;;;17.88;100.00;101406.81;5074335;28;20021;-75
2022/08/20 03:54:39;;;;;;;26.42;15.75;;;;;;;17.89;100.00;101407.66;5074634;28;20028;-75
2022/08/20 03:57:05;;;;;;;33.33;18.40;;;;;;;17.90;100.00;101409.41;5072473;28;20020;-75
2022/08/20 03:59:33;;;;;;;30.42;16.88;;;;;;;17.87;100.00;101409.66;5073749;28;20033;-75
2022/08/20 04:01:59;;;;;;;30.60;15.00;;;;;;;17.82;100.00;101408.25;5073927;28;20435;-75
2022/08/20 04:04:25;;;;;;;34.25;17.02;;;;;;;17.80;100.00;101412.97;5074251;28;20024;-75
2022/08/20 04:06:50;;;;;;;31.17;16.05;;;;;;;17.77;100.00;101415.97;5074652;28;20025;-75
2022/08/20 04:09:16;;;;;;;30.05;17.80;;;;;;;17.75;100.00;101411.69;5073210;28;20029;-75
2022/08/20 04:11:42;;;;;;;32.47;16.52;;;;;;;17.70;100.00;101414.84;5074538;28;20032;-75
2022/08/20 04:14:09;;;;;;;32.22;15.85;;;;;;;17.69;100.00;101425.84;5074799;28;20016;-75
2022/08/20 04:16:34;;;;;;;30.33;16.98;;;;;;;17.69;100.00;101420.41;5078743;28;20024;-75
2022/08/20 04:18:59;;;;;;;33.88;18.40;;;;;;;17.69;100.00;101423.13;5078438;28;20028;-75
2022/08/20 04:21:25;;;;;;;28.67;16.20;;;;;;;17.71;100.00;101416.56;5077429;28;20380;-75
2022/08/20 04:23:51;;;;;;;31.48;17.27;;;;;;;17.70;100.00;101423.00;5078336;28;20111;-75
2022/08/20 04:26:16;;;;;;;35.17;20.60;;;;;;;17.67;100.00;101426.00;5078366;28;20147;-75
2022/08/20 04:28:41;;;;;;;37.13;20.52;;;;;;;17.65;100.00;101422.56;5078156;28;20090;-75
2022/08/20 04:31:07;;;;;;;47.58;22.08;;;;;;;17.65;100.00;101428.00;5076732;28;20090;-75
2022/08/20 04:33:32;;;;;;;32.60;21.77;;;;;;;17.65;100.00;101430.72;5057392;28;20124;-75
2022/08/20 04:36:01;;;;;;;35.50;21.88;;;;;;;17.64;100.00;101431.72;5069440;28;20028;-75
2022/08/20 04:38:28;;;;;;;35.60;21.77;;;;;;;17.67;100.00;101442.31;5058476;28;20032;-75
2022/08/20 04:40:57;;;;;;;31.13;20.35;;;;;;;17.65;100.00;101441.59;5057823;28;20433;-75
2022/08/20 04:43:33;;;;;;;33.85;23.65;;;;;;;17.66;100.00;101440.63;5057924;28;20561;-75
2022/08/20 04:46:01;;;;;;;33.17;23.02;;;;;;;17.67;100.00;101452.34;5056767;28;20025;-75
2022/08/20 04:48:27;;;;;;;37.03;22.80;;;;;;;17.63;100.00;101449.91;5057959;28;20503;-75
2022/08/20 04:50:54;;;;;;;36.42;24.27;;;;;;;17.63;100.00;101451.78;5057989;28;20025;-75
2022/08/20 04:53:22;;;;;;;38.83;23.05;;;;;;;17.62;100.00;101453.63;5057742;28;20484;-75
2022/08/20 04:55:48;;;;;;;34.67;22.27;;;;;;;17.60;100.00;101457.47;5056498;28;20052;-75
2022/08/20 04:58:20;;;;;;;41.35;23.30;;;;;;;17.62;100.00;101458.22;5057652;28;20060;-75
2022/08/20 05:00:48;;;;;;;35.58;22.63;;;;;;;17.61;100.00;101460.06;5061445;28;20020;-75
2022/08/20 05:03:15;;;;;;;35.67;22.55;;;;;;;17.57;100.00;101468.63;5072694;28;20041;-75
2022/08/20 05:05:40;;;;;;;32.30;21.52;;;;;;;17.57;100.00;101468.63;5057649;28;20059;-75
2022/08/20 05:08:06;;;;;;;34.47;21.60;;;;;;;17.56;100.00;101466.94;5057822;28;20052;-75
2022/08/20 05:10:31;;;;;;;36.80;23.40;;;;;;;17.56;100.00;101473.22;5056112;28;20028;-75
2022/08/20 05:12:57;;;;;;;34.50;22.95;;;;;;;17.53;100.00;101462.63;5057533;28;20021;-75
2022/08/20 05:15:24;;;;;;;41.40;23.67;;;;;;;17.55;100.00;101473.38;5064879;28;20059;-75
2022/08/20 05:17:55;;;;;;;34.38;20.85;;;;;;;17.54;100.00;101468.91;5076500;28;20020;-75
2022/08/20 05:20:21;;;;;;;34.72;19.48;;;;;;;17.54;100.00;101464.38;5076257;28;20025;-75
2022/08/20 05:22:46;;;;;;;40.92;21.05;;;;;;;17.52;100.00;101469.06;5077418;28;20093;-75
2022/08/20 05:25:12;;;;;;;34.58;18.98;;;;;;;17.51;100.00;101458.34;5076199;28;20025;-75
2022/08/20 05:27:40;;;;;;;30.48;18.45;;;;;;;17.51;100.00;101478.25;5077587;28;20126;-75
2022/08/20 05:30:09;;;;;;;31.52;19.73;;;;;;;17.51;100.00;101478.25;5077210;28;20027;-75
2022/08/20 05:32:35;;;;;;;37.92;21.33;;;;;;;17.51;100.00;101477.38;5076082;28;20055;-75
2022/08/20 05:35:04;;;;;;;32.63;20.88;;;;;;;17.51;100.00;101489.13;5077358;28;20054;-75
2022/08/20 05:37:30;;;;;;;33.30;20.45;;;;;;;17.52;100.00;101479.09;5077405;28;20093;-75
2022/08/20 05:39:55;;;;;;;41.35;22.58;;;;;;;17.52;100.00;101488.09;5076123;28;20032;-75
2022/08/20 05:42:21;;;;;;;36.75;21.48;;;;;;;17.51;100.00;101480.09;5075835;28;20025;-75
2022/08/20 05:44:46;;;;;;;34.53;22.00;;;;;;;17.50;100.00;101490.09;5075756;28;20461;-75
2022/08/20 05:47:13;;;;;;;37.58;21.33;;;;;;;17.49;100.00;101490.25;5077025;28;20050;-75
2022/08/20 05:49:38;;;;;;;35.83;22.70;;;;;;;17.53;100.00;101489.81;5076998;28;20025;-75
2022/08/20 05:52:04;;;;;;;37.50;22.92;;;;;;;17.55;100.00;101493.25;5076553;28;20024;-75
2022/08/20 05:54:30;;;;;;;38.75;23.13;;;;;;;17.56;100.00;101499.56;5077322;28;20081;-75
2022/08/20 05:56:56;;;;;;;39.20;25.02;;;;;;;17.57;100.00;101487.66;5076995;28;20028;-75
2022/08/20 05:59:23;;;;;;;44.67;25.33;;;;;;;17.58;100.00;101486.66;5077181;28;20108;-75
2022/08/20 06:01:48;;;;;;;38.75;25.75;;;;;;;17.60;100.00;101492.81;5076749;28;20032;-75
2022/08/20 06:04:27;;;;;;;40.72;24.17;;;;;;;17.63;100.00;101495.28;5077191;28;20493;-75
2022/08/20 06:07:01;;;;;;;40.28;24.58;;;;;;;17.65;100.00;101498.69;5076829;28;20182;-75
2022/08/20 06:09:27;;;;;;;40.72;25.23;;;;;;;17.67;100.00;101498.53;5077224;28;20036;-75
2022/08/20 06:11:52;;;;;;;40.42;24.92;;;;;;;17.68;100.00;101509.28;5076595;28;20400;-75
2022/08/20 06:14:19;;;;;;;45.92;25.75;;;;;;;17.67;100.00;101504.81;5076855;28;20109;-75
2022/08/20 06:16:45;;;;;;;43.70;25.55;;;;;;;17.69;100.00;101499.25;5075383;28;20373;-75
2022/08/20 06:19:11;;;;;;;38.60;24.02;;;;;;;17.68;100.00;101503.00;5075915;28;20058;-75
2022/08/20 06:21:36;;;;;;;40.13;26.17;;;;;;;17.67;100.00;101501.25;5076132;28;20055;-75
2022/08/20 06:24:02;;;;;;;41.60;26.35;;;;;;;17.68;100.00;101500.28;5076638;28;20465;-75
2022/08/20 06:26:28;;;;;;;40.42;25.48;;;;;;;17.71;100.00;101500.81;5075014;28;20028;-75
2022/08/20 06:28:53;;;;;;;40.08;26.98;;;;;;;17.73;100.00;101496.13;5076362;28;20021;-75
2022/08/20 06:31:20;;;;;;;39.78;25.95;;;;;;;17.75;100.00;101496.81;5076009;28;20435;-75
2022/08/20 06:33:46;;;;;;;43.67;26.90;;;;;;;17.74;100.00;101495.09;5076382;28;20044;-75
2022/08/20 06:36:11;;;;;;;39.90;26.35;;;;;;;17.78;100.00;101498.41;5076587;28;20036;-75
2022/08/20 06:38:36;;;;;;;43.33;26.25;;;;;;;17.80;100.00;101491.84;5075533;28;20425;-75
2022/08/20 06:41:02;;;;;;;44.38;27.67;;;;;;;17.84;100.00;101499.69;5076228;28;20478;-75
2022/08/20 06:43:27;;;;;;;43.75;27.27;;;;;;;17.86;100.00;101505.84;5074554;28;20028;-75
2022/08/20 06:45:56;;;;;;;42.08;27.23;;;;;;;17.87;100.00;101507.56;5076106;28;20101;-75
2022/08/20 06:48:22;;;;;;;45.22;26.02;;;;;;;17.89;100.00;101510.97;5074824;28;20397;-75
2022/08/20 06:50:47;;;;;;;42.13;26.42;;;;;;;17.90;100.00;101507.31;5075692;28;20034;-75
2022/08/20 06:53:16;;;;;;;47.00;28.45;;;;;;;17.92;100.00;101510.72;5076104;28;20493;-75
2022/08/20 06:55:46;;;;;;;43.42;29.05;;;;;;;17.92;100.00;101503.44;5075800;28;20036;-75
2022/08/20 06:58:11;;;;;;;42.20;29.52;;;;;;;17.93;100.00;101507.84;5074100;28;20038;-75
2022/08/20 07:00:41;;;;;;;42.38;30.05;;;;;;;17.94;100.00;101511.47;5074288;28;20107;-75
2022/08/20 07:03:07;;;;;;;45.22;29.63;;;;;;;17.97;100.00;101505.72;5075308;28;20031;-75
2022/08/20 07:05:35;;;;;;;39.97;28.23;;;;;;;17.99;100.00;101517.31;5075409;28;20468;-75
2022/08/20 07:08:00;;;;;;;44.55;30.45;;;;;;;18.02;100.00;101517.00;5073852;28;20094;-75
2022/08/20 07:10:26;;;;;;;42.97;29.63;;;;;;;18.04;100.00;101515.03;5074978;28;20048;-75
2022/08/20 07:12:51;;;;;;;41.35;26.10;;;;;;;18.07;100.00;101509.28;5073635;28;20048;-75
2022/08/20 07:15:20;;;;;;;43.38;29.42;;;;;;;18.09;100.00;101518.16;5075197;28;20040;-75
2022/08/20 07:17:53;;;;;;;45.60;29.05;;;;;;;18.13;100.00;101521.44;5074875;28;20029;-75
2022/08/20 07:20:19;;;;;;;42.50;29.10;;;;;;;18.16;100.00;101524.72;5073080;28;20500;-75
2022/08/20 07:22:45;;;;;;;42.22;28.05;;;;;;;18.20;100.00;101528.03;5074531;28;20431;-75
2022/08/20 07:25:13;;;;;;;47.08;30.17;;;;;;;18.21;100.00;101523.44;5074504;28;20022;-75
2022/08/20 07:27:39;;;;;;;48.10;30.42;;;;;;;18.23;100.00;101532.28;5073119;28;20020;-75
2022/08/20 07:32:50;;;;;;;46.80;29.23;;;;;;;18.28;100.00;101530.84;5073725;28;20114;-75
2022/08/20 07:35:17;;;;;;;44.65;30.33;;;;;;;18.30;100.00;101533.44;5073997;28;20036;-75
2022/08/20 07:37:47;;;;;;;46.15;29.75;;;;;;;18.29;100.00;101537.19;5072961;28;20043;-75
2022/08/20 07:40:15;;;;;;;46.78;30.00;;;;;;;18.33;100.00;101534.00;5072725;28;20024;-75
2022/08/20 07:42:40;;;;;;;43.47;29.83;;;;;;;18.34;100.00;101541.16;5074189;28;20067;-75
2022/08/20 07:45:09;;;;;;;45.22;30.85;;;;;;;18.37;100.00;101548.16;5074369;28;20028;-75
2022/08/20 07:47:44;;;;;;;40.20;28.60;;;;;;;18.38;100.00;101549.06;5074476;28;20099;-75
2022/08/20 07:50:13;;;;;;;46.15;30.42;;;;;;;18.39;100.00;101551.63;5072214;28;20275;-75
2022/08/20 07:52:39;;;;;;;43.17;28.10;;;;;;;18.40;100.00;101553.31;5072461;28;20027;-75
2022/08/20 07:55:06;;;;;;;43.25;30.52;;;;;;;18.43;100.00;101560.34;5073940;28;20103;-75
2022/08/20 07:57:32;;;;;;;46.22;28.25;;;;;;;18.48;100.00;101561.63;5073846;28;20033;-75
2022/08/20 07:59:59;;;;;;;45.67;30.48;;;;;;;18.49;100.00;101563.34;5073160;28;20028;-75
2022/08/20 08:02:26;;;;;;;42.97;28.58;;;;;;;18.54;100.00;101562.00;5074102;28;20021;-75
2022/08/20 08:04:51;;;;;;;42.92;25.77;;;;;;;18.57;100.00;101569.91;5072833;28;20029;-75
2022/08/20 08:07:17;;;;;;;37.53;25.58;;;;;;;18.63;100.00;101572.88;5073788;28;20054;-75
2022/08/20 08:09:43;;;;;;;35.55;22.60;;;;;;;18.68;100.00;101576.03;5074131;28;20062;-75
2022/08/20 08:12:12;;;;;;;39.53;25.35;;;;;;;18.75;100.00;101561.81;5074207;28;20400;-75
2022/08/20 08:14:39;;;;;;;38.77;22.97;;;;;;;18.82;100.00;101563.78;5074027;28;20012;-75
2022/08/20 08:17:05;;;;;;;32.75;16.60;;;;;;;18.88;97.82;101566.97;5074016;28;20380;-75
2022/08/20 08:19:37;;;;;;;34.33;20.10;;;;;;;18.95;98.98;101559.94;5074188;28;20035;-75
2022/08/20 08:22:05;;;;;;;31.33;18.67;;;;;;;19.04;99.98;101565.31;5074061;28;20028;-75
2022/08/20 08:24:30;;;;;;;31.48;17.40;;;;;;;19.03;95.30;101570.91;5072765;28;20056;-75
2022/08/20 08:26:56;;;;;;;30.75;16.95;;;;;;;19.03;95.43;101571.78;5072931;28;20503;-75
2022/08/20 08:29:21;;;;;;;29.42;17.02;;;;;;;19.07;95.00;101566.03;5074118;28;20036;-76
2022/08/20 08:31:46;;;;;;;32.13;17.48;;;;;;;19.15;95.90;101566.13;5073457;28;20045;-75
2022/08/20 08:34:11;;;;;;;28.60;17.23;;;;;;;19.20;95.25;101567.38;5074123;28;20038;-75
2022/08/20 08:36:38;;;;;;;26.63;17.35;;;;;;;19.30;95.07;101570.06;5072781;28;20043;-75
2022/08/20 08:39:03;;;;;;;28.73;16.00;;;;;;;19.35;95.41;101572.31;5073962;28;20032;-75
2022/08/20 08:41:33;;;;;;;29.60;16.58;;;;;;;19.39;95.15;101576.47;5072927;28;20077;-75
2022/08/20 08:44:22;;;;;;;;;;;;;;;19.44;97.63;101576.84;5072885;28;20024;-75
2022/08/20 08:46:50;;;;;;;27.83;16.52;;;;;;;19.34;92.40;101579.66;5073594;28;19992;-75
2022/08/20 08:49:19;;;;;;;28.27;16.95;;;;;;;19.28;92.42;101590.28;5073692;28;20435;-75
2022/08/20 08:51:50;;;;;;;30.60;16.73;;;;;;;19.27;94.05;101594.91;5073938;28;20020;-75
2022/08/20 08:54:19;;;;;;;27.05;15.43;;;;;;;19.24;90.90;101592.47;5072380;28;20028;-75
2022/08/20 08:56:45;;;;;;;29.00;14.45;;;;;;;19.30;91.92;101588.28;5073641;28;20091;-75
2022/08/20 08:59:10;;;;;;;25.05;11.95;;;;;;;19.34;87.55;101586.97;5072578;28;20028;-75
2022/08/20 09:01:44;;;;;;;24.38;11.27;;;;;;;19.39;84.93;101590.09;5074215;28;20093;-75
2022/08/20 09:04:14;;;;;;;25.60;11.85;;;;;;;19.44;84.84;101587.75;5076408;28;20020;-75
2022/08/20 09:06:39;;;;;;;;;;;;;;;19.52;89.23;101596.03;5077679;28;20484;-75
2022/08/20 09:09:09;;;;;;;22.45;10.35;;;;;;;19.48;82.07;101602.81;5077433;28;19919;-75
2022/08/20 09:11:49;;;;;;;24.90;11.48;;;;;;;19.51;84.78;101596.19;5077561;28;20032;-75
2022/08/20 09:14:14;;;;;;;25.52;10.52;;;;;;;19.56;85.07;101599.31;5077791;28;20028;-75
2022/08/20 09:16:39;;;;;;;25.15;11.98;;;;;;;19.62;84.63;101597.84;5077112;28;20028;-75
2022/08/20 09:19:05;;;;;;;28.33;12.55;;;;;;;19.67;84.64;101595.53;5077270;28;20664;-75
2022/08/20 09:21:30;;;;;;;23.73;11.85;;;;;;;19.72;83.01;101595.91;5077414;28;20024;-75
2022/08/20 09:23:55;;;;;;;24.38;10.80;;;;;;;19.73;80.65;101589.44;5076904;28;20480;-75
2022/08/20 09:26:21;;;;;;;21.83;9.75;;;;;;;19.75;82.92;101595.59;5076946;28;20051;-75
2022/08/20 09:28:46;;;;;;;22.27;10.70;;;;;;;19.77;79.66;101598.19;5076976;28;20434;-75
2022/08/20 09:31:11;;;;;;;21.92;8.98;;;;;;;19.82;80.97;101594.00;5075415;28;20032;-75
2022/08/20 09:33:36;;;;;;;23.60;10.43;;;;;;;19.84;81.89;101591.97;5076255;28;20041;-75
2022/08/20 09:36:02;;;;;;;25.20;11.27;;;;;;;19.87;81.45;101593.56;5075496;28;20064;-75
2022/08/20 09:38:28;;;;;;;23.77;11.27;;;;;;;19.90;80.69;101596.81;5076769;28;20028;-75
2022/08/20 09:40:53;;;;;;;24.00;12.35;;;;;;;19.93;80.22;101581.13;5076922;28;20059;-75
2022/08/20 09:43:18;;;;;;;24.35;12.15;;;;;;;19.98;80.51;101579.66;5075323;28;20020;-75
2022/08/20 09:45:43;;;;;;;26.33;12.25;;;;;;;20.00;81.14;101582.22;5075565;28;20028;-75
2022/08/20 09:48:09;;;;;;;25.10;11.35;;;;;;;20.01;81.12;101579.34;5075244;28;20464;-75
2022/08/20 09:50:35;;;;;;;23.48;10.80;;;;;;;20.06;80.13;101578.88;5075177;28;20103;-75
2022/08/20 09:53:02;;;;;;;22.73;9.43;;;;;;;20.09;80.25;101589.50;5056085;28;20017;-75
2022/08/20 09:55:37;;;;;;;24.15;9.38;;;;;;;20.11;76.85;101582.00;5055005;28;20025;-75
2022/08/20 09:58:10;;;;;;;25.35;7.70;;;;;;;20.15;75.95;101588.00;5055187;28;20036;-75
2022/08/20 10:00:35;;;;;;;15.40;4.90;;;;;;;20.08;68.44;101594.06;5058326;28;20020;-75
2022/08/20 10:03:02;;;;;;;19.15;4.95;;;;;;;20.06;65.56;101589.81;5076401;28;20380;-75
2022/08/20 10:05:27;;;;;;;24.20;7.88;;;;;;;20.10;69.32;101593.91;5076295;28;20028;-75
2022/08/20 10:07:52;;;;;;;19.67;8.00;;;;;;;20.16;71.71;101584.25;5076164;28;20020;-75
2022/08/20 10:10:18;;;;;;;19.13;8.30;;;;;;;20.23;73.66;101582.59;5074790;28;20114;-75
2022/08/20 10:12:45;;;;;;;21.45;8.32;;;;;;;20.32;73.52;101591.72;5073615;28;20051;-75
2022/08/20 10:15:11;;;;;;;24.35;7.45;;;;;;;20.36;70.10;101590.38;5075790;28;20025;-75
2022/08/20 10:17:41;;;;;;;23.90;8.20;;;;;;;20.44;71.28;101587.72;5075610;28;20396;-75
2022/08/20 10:20:08;;;;;;;22.73;8.20;;;;;;;20.46;69.92;101585.69;5074350;28;20127;-75
2022/08/20 10:22:33;;;;;;;23.17;8.63;;;;;;;20.53;71.30;101585.91;5075818;28;20024;-75
2022/08/20 10:24:59;;;;;;;21.25;8.55;;;;;;;20.60;71.95;101593.28;5075317;28;20395;-75
2022/08/20 10:27:24;;;;;;;23.67;9.52;;;;;;;20.68;71.53;101586.19;5075880;28;20163;-75
2022/08/20 10:29:52;;;;;;;21.83;7.88;;;;;;;20.73;69.75;101586.56;5075648;28;20516;-75
2022/08/20 10:32:17;;;;;;;21.08;8.00;;;;;;;20.78;69.12;101589.69;5075408;28;20134;-75
2022/08/20 10:34:45;;;;;;;20.75;7.47;;;;;;;20.87;69.40;101579.66;5075355;28;20028;-75
2022/08/20 10:37:15;;;;;;;20.00;8.82;;;;;;;20.94;69.77;101591.66;5075790;28;20051;-75
2022/08/20 10:39:40;;;;;;;18.23;7.57;;;;;;;20.96;67.17;101584.13;5075630;28;20056;-75
2022/08/20 10:42:05;;;;;;;19.52;7.03;;;;;;;21.04;67.39;101581.44;5075064;28;20503;-75
2022/08/20 10:44:30;;;;;;;19.92;6.97;;;;;;;21.13;66.14;101587.81;5073872;28;20094;-75
2022/08/20 10:46:56;;;;;;;21.00;6.07;;;;;;;21.24;64.62;101583.91;5073571;28;20025;-75
2022/08/20 10:49:21;;;;;;;20.35;7.20;;;;;;;21.28;65.33;101585.31;5073708;28;20024;-75
2022/08/20 10:51:46;;;;;;;17.85;6.35;;;;;;;21.39;66.56;101581.41;5073473;28;20495;-75
2022/08/20 10:54:12;;;;;;;17.98;6.38;;;;;;;21.45;63.64;101586.19;5073284;28;20062;-75
2022/08/20 10:56:37;;;;;;;17.20;5.32;;;;;;;21.44;63.68;101595.44;5074034;28;20029;-75
2022/08/20 10:59:02;;;;;;;21.50;6.63;;;;;;;21.41;63.82;101593.88;5074308;28;20528;-75
2022/08/20 11:01:28;;;;;;;22.67;6.90;;;;;;;21.34;61.66;101594.72;5074234;28;20059;-75
2022/08/20 11:03:53;;;;;;;20.02;5.85;;;;;;;21.27;62.43;101595.41;5074063;28;20113;-75
2022/08/20 11:06:18;;;;;;;17.77;5.68;;;;;;;21.30;62.63;101594.19;5074400;28;20016;-75